createdAt,value
2019-03-22T00:00:13.528Z,21.20
2019-03-22T00:01:13.525Z,20.50
2019-03-22T00:02:13.315Z,17.80
2019-03-22T00:03:13.322Z,21.30
2019-03-22T00:04:13.300Z,21.40
2019-03-22T00:05:13.296Z,22.20
2019-03-22T00:06:13.298Z,21.90
2019-03-22T00:07:13.280Z,22.20
2019-03-22T00:08:13.265Z,23.00
2019-03-22T00:09:13.260Z,22.00
2019-03-22T00:10:13.258Z,22.80
2019-03-22T00:11:13.245Z,21.10
2019-03-22T00:12:13.242Z,20.10
2019-03-22T00:13:13.234Z,20.40
2019-03-22T00:14:13.222Z,17.70
2019-03-22T00:15:13.220Z,16.30
2019-03-22T00:16:13.428Z,18.50
2019-03-22T00:17:13.406Z,19.10
2019-03-22T00:18:13.203Z,16.80
2019-03-22T00:19:13.189Z,16.30
2019-03-22T00:20:13.201Z,16.90
2019-03-22T00:21:13.193Z,17.50
2019-03-22T00:22:13.181Z,18.60
2019-03-22T00:23:13.161Z,19.00
2019-03-22T00:24:13.159Z,18.00
2019-03-22T00:25:13.161Z,18.50
2019-03-22T00:26:13.147Z,19.10
2019-03-22T00:27:16.756Z,18.90
2019-03-22T00:28:13.340Z,21.10
2019-03-22T00:29:13.143Z,21.60
2019-03-22T00:30:13.118Z,21.00
2019-03-22T00:31:13.318Z,20.00
2019-03-22T00:32:13.309Z,18.90
2019-03-22T00:33:13.105Z,18.00
2019-03-22T00:34:13.113Z,17.00
2019-03-22T00:35:13.084Z,15.80
2019-03-22T00:36:13.101Z,17.50
2019-03-22T00:37:13.275Z,17.30
2019-03-22T00:38:13.072Z,19.20
2019-03-22T00:39:13.078Z,19.50
2019-03-22T00:40:13.059Z,21.90
2019-03-22T00:41:13.253Z,22.90
2019-03-22T00:42:13.042Z,22.30
2019-03-22T00:43:13.034Z,21.70
2019-03-22T00:44:13.042Z,21.80
2019-03-22T00:45:13.024Z,22.10
2019-03-22T00:46:13.030Z,22.00
2019-03-22T00:47:13.038Z,21.20
2019-03-22T00:48:13.005Z,21.50
2019-03-22T00:49:13.000Z,22.00
2019-03-22T00:50:13.007Z,20.90
2019-03-22T00:51:12.987Z,18.90
2019-03-22T00:52:12.984Z,20.20
2019-03-22T00:53:13.181Z,19.80
2019-03-22T00:54:12.966Z,20.40
2019-03-22T00:55:12.961Z,20.30
2019-03-22T00:56:12.953Z,21.70
2019-03-22T00:57:12.947Z,21.80
2019-03-22T00:58:12.955Z,21.10
2019-03-22T00:59:12.943Z,21.60
2019-03-22T01:00:12.937Z,23.50
2019-03-22T01:01:12.919Z,22.40
2019-03-22T01:02:12.907Z,22.30
2019-03-22T01:03:12.917Z,22.50
2019-03-22T01:04:13.107Z,20.70
2019-03-22T01:05:12.894Z,22.30
2019-03-22T01:06:12.887Z,19.90
2019-03-22T01:07:13.076Z,20.20
2019-03-22T01:08:12.876Z,20.60
2019-03-22T01:09:12.861Z,19.70
2019-03-22T01:10:12.857Z,20.60
2019-03-22T01:11:13.064Z,17.70
2019-03-22T01:12:12.853Z,19.00
2019-03-22T01:13:12.837Z,20.40
2019-03-22T01:14:12.829Z,20.50
2019-03-22T01:15:12.826Z,20.20
2019-03-22T01:16:12.813Z,21.40
2019-03-22T01:17:12.810Z,22.10
2019-03-22T01:18:12.798Z,22.00
2019-03-22T01:19:12.794Z,23.30
2019-03-22T01:20:12.797Z,23.70
2019-03-22T01:21:12.790Z,20.40
2019-03-22T01:22:12.789Z,20.70
2019-03-22T01:23:12.768Z,21.90
2019-03-22T01:24:12.976Z,20.60
2019-03-22T01:25:12.759Z,20.80
2019-03-22T01:26:12.768Z,21.50
2019-03-22T01:27:12.739Z,23.90
2019-03-22T01:28:12.736Z,22.80
2019-03-22T01:29:12.931Z,21.20
2019-03-22T01:30:12.720Z,22.30
2019-03-22T01:31:12.926Z,22.00
2019-03-22T01:32:12.719Z,20.60
2019-03-22T01:33:12.710Z,20.00
2019-03-22T01:34:12.896Z,20.50
2019-03-22T01:35:12.901Z,21.10
2019-03-22T01:36:12.689Z,21.00
2019-03-22T01:37:12.739Z,19.10
2019-03-22T01:38:12.661Z,18.40
2019-03-22T01:39:12.661Z,17.10
2019-03-22T01:40:12.658Z,17.50
2019-03-22T01:41:12.643Z,16.70
2019-03-22T01:42:12.652Z,16.30
2019-03-22T01:43:12.635Z,17.10
2019-03-22T01:44:12.631Z,16.40
2019-03-22T01:45:12.819Z,17.50
2019-03-22T01:46:12.611Z,17.10
2019-03-22T01:47:12.606Z,17.10
2019-03-22T01:48:12.828Z,18.20
2019-03-22T01:49:12.597Z,18.30
2019-03-22T01:50:12.582Z,19.10
2019-03-22T01:51:12.793Z,18.90
2019-03-22T01:52:12.773Z,19.20
2019-03-22T01:53:12.782Z,19.70
2019-03-22T01:54:12.763Z,20.40
2019-03-22T01:55:12.549Z,20.30
2019-03-22T01:56:12.557Z,23.30
2019-03-22T01:57:12.532Z,22.20
2019-03-22T01:58:12.532Z,23.60
2019-03-22T01:59:12.730Z,23.40
2019-03-22T02:00:12.515Z,25.80
2019-03-22T02:01:12.714Z,27.10
2019-03-22T02:02:12.720Z,26.80
2019-03-22T02:03:12.499Z,29.40
2019-03-22T02:04:12.691Z,28.70
2019-03-22T02:05:12.687Z,28.60
2019-03-22T02:06:12.472Z,27.40
2019-03-22T02:07:12.465Z,28.10
2019-03-22T02:08:12.662Z,30.20
2019-03-22T02:09:12.456Z,30.70
2019-03-22T02:10:12.456Z,31.40
2019-03-22T02:11:12.442Z,30.80
2019-03-22T02:12:12.431Z,30.60
2019-03-22T02:13:12.423Z,29.10
2019-03-22T02:14:12.445Z,29.80
2019-03-22T02:15:12.625Z,29.20
2019-03-22T02:16:12.401Z,27.80
2019-03-22T02:17:12.415Z,29.70
2019-03-22T02:18:12.403Z,30.00
2019-03-22T02:19:12.387Z,28.80
2019-03-22T02:20:12.372Z,26.50
2019-03-22T02:21:12.370Z,25.50
2019-03-22T02:22:12.363Z,28.20
2019-03-22T02:23:12.361Z,25.90
2019-03-22T02:24:12.366Z,28.10
2019-03-22T02:25:12.554Z,29.00
2019-03-22T02:26:12.328Z,29.70
2019-03-22T02:27:12.326Z,27.50
2019-03-22T02:28:12.321Z,24.90
2019-03-22T02:29:12.308Z,23.80
2019-03-22T02:30:12.510Z,23.90
2019-03-22T02:31:12.312Z,22.40
2019-03-22T02:32:12.494Z,24.00
2019-03-22T02:33:12.283Z,25.20
2019-03-22T02:34:12.277Z,25.70
2019-03-22T02:35:27.581Z,25.30
2019-03-22T02:36:12.267Z,23.60
2019-03-22T02:37:12.270Z,23.20
2019-03-22T02:38:12.258Z,22.70
2019-03-22T02:39:12.263Z,21.80
2019-03-22T02:40:12.254Z,25.80
2019-03-22T02:41:12.254Z,25.00
2019-03-22T02:42:12.223Z,26.30
2019-03-22T02:43:12.226Z,26.40
2019-03-22T02:44:12.207Z,25.60
2019-03-22T02:45:12.203Z,27.00
2019-03-22T02:46:12.205Z,25.90
2019-03-22T02:47:12.198Z,26.00
2019-03-22T02:48:12.392Z,25.10
2019-03-22T02:49:12.376Z,23.70
2019-03-22T02:50:18.734Z,21.60
2019-03-22T02:51:12.170Z,21.30
2019-03-22T02:52:12.378Z,22.30
2019-03-22T02:53:12.143Z,21.80
2019-03-22T02:54:12.342Z,20.10
2019-03-22T02:55:12.194Z,20.10
2019-03-22T02:56:12.211Z,20.30
2019-03-22T02:57:12.131Z,20.90
2019-03-22T02:58:20.601Z,23.00
2019-03-22T02:59:12.101Z,24.20
2019-03-22T03:00:12.113Z,25.40
2019-03-22T03:01:12.294Z,24.80
2019-03-22T03:02:12.082Z,26.40
2019-03-22T03:03:12.073Z,26.60
2019-03-22T03:04:12.279Z,26.10
2019-03-22T03:05:12.271Z,26.10
2019-03-22T03:06:12.279Z,26.00
2019-03-22T03:07:12.274Z,25.60
2019-03-22T03:08:12.241Z,26.40
2019-03-22T03:09:12.036Z,27.30
2019-03-22T03:10:12.028Z,26.40
2019-03-22T03:11:12.017Z,25.80
2019-03-22T03:12:12.219Z,24.30
2019-03-22T03:13:12.217Z,22.40
2019-03-22T03:14:11.998Z,23.20
2019-03-22T03:15:12.008Z,24.80
2019-03-22T03:16:11.999Z,26.30
2019-03-22T03:17:11.992Z,26.20
2019-03-22T03:18:11.982Z,24.50
2019-03-22T03:19:11.962Z,24.90
2019-03-22T03:20:12.175Z,24.40
2019-03-22T03:21:11.962Z,27.50
2019-03-22T03:22:12.083Z,26.60
2019-03-22T03:23:11.928Z,24.80
2019-03-22T03:24:11.929Z,25.10
2019-03-22T03:25:11.916Z,26.10
2019-03-22T03:26:11.919Z,25.90
2019-03-22T03:27:11.909Z,26.10
2019-03-22T03:28:11.920Z,25.40
2019-03-22T03:29:12.103Z,25.10
2019-03-22T03:30:12.089Z,24.50
2019-03-22T03:31:11.892Z,22.80
2019-03-22T03:32:11.898Z,21.70
2019-03-22T03:33:11.877Z,21.40
2019-03-22T03:34:12.059Z,21.20
2019-03-22T03:35:11.857Z,20.30
2019-03-22T03:36:11.845Z,19.00
2019-03-22T03:37:12.045Z,17.50
2019-03-22T03:38:11.838Z,17.60
2019-03-22T03:39:12.021Z,18.50
2019-03-22T03:40:11.817Z,17.80
2019-03-22T03:41:11.809Z,20.60
2019-03-22T03:42:11.800Z,20.20
2019-03-22T03:43:11.787Z,20.60
2019-03-22T03:44:11.786Z,20.10
2019-03-22T03:45:11.783Z,22.40
2019-03-22T03:46:11.976Z,21.60
2019-03-22T03:47:12.002Z,23.60
2019-03-22T03:48:11.955Z,23.80
2019-03-22T03:49:11.756Z,24.20
2019-03-22T03:50:11.739Z,24.10
2019-03-22T03:51:11.744Z,25.20
2019-03-22T03:52:11.728Z,25.00
2019-03-22T03:53:11.725Z,25.30
2019-03-22T03:54:11.725Z,25.10
2019-03-22T03:55:11.705Z,25.10
2019-03-22T03:56:11.701Z,26.10
2019-03-22T03:57:11.719Z,22.70
2019-03-22T03:58:11.697Z,20.40
2019-03-22T03:59:11.677Z,20.60
2019-03-22T04:00:11.683Z,19.30
2019-03-22T04:01:11.663Z,20.30
2019-03-22T04:02:11.655Z,20.90
2019-03-22T04:03:11.658Z,20.20
2019-03-22T04:04:11.664Z,19.60
2019-03-22T04:05:14.469Z,19.30
2019-03-22T04:06:11.826Z,17.90
2019-03-22T04:07:11.644Z,20.00
2019-03-22T04:08:11.607Z,25.00
2019-03-22T04:09:11.605Z,26.10
2019-03-22T04:10:11.595Z,24.20
2019-03-22T04:11:11.601Z,24.70
2019-03-22T04:12:11.597Z,25.90
2019-03-22T04:13:11.595Z,25.00
2019-03-22T04:14:11.785Z,23.90
2019-03-22T04:15:11.761Z,25.20
2019-03-22T04:16:11.566Z,25.60
2019-03-22T04:17:11.545Z,24.90
2019-03-22T04:18:11.743Z,22.80
2019-03-22T04:19:11.550Z,20.30
2019-03-22T04:20:11.541Z,21.60
2019-03-22T04:21:11.516Z,20.40
2019-03-22T04:22:11.508Z,23.40
2019-03-22T04:23:11.518Z,20.00
2019-03-22T04:24:11.703Z,21.70
2019-03-22T04:25:11.485Z,21.70
2019-03-22T04:26:11.683Z,23.10
2019-03-22T04:27:11.484Z,21.50
2019-03-22T04:28:11.467Z,22.50
2019-03-22T04:29:11.473Z,20.20
2019-03-22T04:30:11.664Z,17.30
2019-03-22T04:31:11.444Z,18.40
2019-03-22T04:32:11.437Z,18.90
2019-03-22T04:33:11.635Z,20.40
2019-03-22T04:34:11.440Z,20.40
2019-03-22T04:35:11.412Z,20.40
2019-03-22T04:36:11.425Z,19.90
2019-03-22T04:37:11.412Z,19.60
2019-03-22T04:38:11.394Z,19.70
2019-03-22T04:39:11.399Z,19.60
2019-03-22T04:40:11.380Z,19.10
2019-03-22T04:41:11.370Z,18.20
2019-03-22T04:42:11.375Z,19.90
2019-03-22T04:43:11.361Z,21.10
2019-03-22T04:44:11.352Z,21.20
2019-03-22T04:45:11.347Z,18.70
2019-03-22T04:46:11.348Z,17.00
2019-03-22T04:47:11.382Z,16.40
2019-03-22T04:48:11.327Z,16.00
2019-03-22T04:49:11.314Z,17.60
2019-03-22T04:50:11.304Z,18.20
2019-03-22T04:51:11.504Z,21.30
2019-03-22T04:52:11.498Z,21.40
2019-03-22T04:53:11.283Z,21.10
2019-03-22T04:54:11.309Z,21.20
2019-03-22T04:55:11.282Z,19.50
2019-03-22T04:56:11.266Z,21.30
2019-03-22T04:57:11.264Z,19.60
2019-03-22T04:58:11.251Z,18.70
2019-03-22T04:59:19.066Z,19.20
2019-03-22T05:00:11.451Z,21.00
2019-03-22T05:01:11.234Z,19.40
2019-03-22T05:02:11.232Z,20.00
2019-03-22T05:03:11.211Z,18.70
2019-03-22T05:04:11.212Z,19.70
2019-03-22T05:05:11.216Z,19.20
2019-03-22T05:06:11.212Z,20.80
2019-03-22T05:07:11.182Z,20.20
2019-03-22T05:08:11.190Z,19.70
2019-03-22T05:09:11.180Z,19.10
2019-03-22T05:10:11.171Z,19.00
2019-03-22T05:11:11.181Z,18.90
2019-03-22T05:12:11.155Z,19.60
2019-03-22T05:13:11.138Z,18.90
2019-03-22T05:14:11.175Z,20.30
2019-03-22T05:15:11.124Z,19.80
2019-03-22T05:16:11.116Z,17.50
2019-03-22T05:17:11.122Z,17.80
2019-03-22T05:18:11.109Z,17.80
2019-03-22T05:19:11.126Z,17.60
2019-03-22T05:20:11.086Z,17.00
2019-03-22T05:21:11.084Z,15.40
2019-03-22T05:22:11.081Z,15.90
2019-03-22T05:23:11.062Z,15.00
2019-03-22T05:24:11.055Z,15.20
2019-03-22T05:25:11.059Z,14.90
2019-03-22T05:26:11.038Z,15.10
2019-03-22T05:27:11.057Z,16.20
2019-03-22T05:28:11.028Z,16.10
2019-03-22T05:29:11.022Z,16.50
2019-03-22T05:30:11.009Z,16.90
2019-03-22T05:31:11.002Z,18.10
2019-03-22T05:32:11.009Z,18.80
2019-03-22T05:33:11.192Z,20.30
2019-03-22T05:34:10.979Z,19.50
2019-03-22T05:35:10.989Z,20.80
2019-03-22T05:36:11.172Z,20.50
2019-03-22T05:37:10.966Z,20.50
2019-03-22T05:38:10.952Z,18.70
2019-03-22T05:39:10.958Z,19.00
2019-03-22T05:40:11.138Z,18.00
2019-03-22T05:41:13.683Z,20.00
2019-03-22T05:42:10.922Z,19.50
2019-03-22T05:43:11.121Z,19.40
2019-03-22T05:44:10.908Z,21.10
2019-03-22T05:45:10.896Z,18.00
2019-03-22T05:46:10.898Z,18.30
2019-03-22T05:47:10.879Z,19.30
2019-03-22T05:48:10.885Z,17.90
2019-03-22T05:49:10.872Z,19.30
2019-03-22T05:50:10.870Z,19.00
2019-03-22T05:51:11.062Z,19.20
2019-03-22T05:52:10.856Z,17.80
2019-03-22T05:53:10.842Z,18.30
2019-03-22T05:54:11.042Z,16.50
2019-03-22T05:55:10.818Z,16.80
2019-03-22T05:56:10.817Z,18.30
2019-03-22T05:57:13.640Z,18.20
2019-03-22T05:58:10.802Z,17.10
2019-03-22T05:59:10.794Z,19.00
2019-03-22T06:00:10.800Z,18.90
2019-03-22T06:01:10.792Z,19.30
2019-03-22T06:02:10.977Z,17.70
2019-03-22T06:03:10.770Z,17.60
2019-03-22T06:04:10.761Z,16.60
2019-03-22T06:05:10.958Z,18.80
2019-03-22T06:06:10.739Z,19.20
2019-03-22T06:07:10.747Z,20.10
2019-03-22T06:08:10.726Z,19.80
2019-03-22T06:09:10.939Z,20.00
2019-03-22T06:10:10.706Z,19.30
2019-03-22T06:11:10.707Z,19.90
2019-03-22T06:12:10.749Z,20.10
2019-03-22T06:13:10.899Z,21.50
2019-03-22T06:14:10.678Z,22.60
2019-03-22T06:15:10.691Z,25.60
2019-03-22T06:16:10.681Z,24.90
2019-03-22T06:17:10.678Z,24.50
2019-03-22T06:18:10.660Z,23.20
2019-03-22T06:19:10.645Z,23.70
2019-03-22T06:20:10.657Z,23.20
2019-03-22T06:21:10.635Z,22.10
2019-03-22T06:22:10.641Z,20.10
2019-03-22T06:23:10.619Z,19.80
2019-03-22T06:24:10.616Z,17.50
2019-03-22T06:25:10.616Z,19.40
2019-03-22T06:26:10.602Z,20.70
2019-03-22T06:27:10.595Z,20.90
2019-03-22T06:28:10.587Z,20.80
2019-03-22T06:29:10.882Z,21.80
2019-03-22T06:30:10.564Z,21.80
2019-03-22T06:31:10.552Z,23.70
2019-03-22T06:32:10.549Z,23.50
2019-03-22T06:33:10.544Z,23.80
2019-03-22T06:34:10.532Z,24.00
2019-03-22T06:35:10.540Z,24.10
2019-03-22T06:36:10.529Z,24.90
2019-03-22T06:37:10.723Z,25.50
2019-03-22T06:38:10.517Z,24.50
2019-03-22T06:39:10.496Z,23.20
2019-03-22T06:40:10.496Z,25.20
2019-03-22T06:41:10.486Z,24.30
2019-03-22T06:42:10.479Z,24.60
2019-03-22T06:43:10.470Z,25.00
2019-03-22T06:44:10.471Z,25.70
2019-03-22T06:45:10.459Z,26.50
2019-03-22T06:46:10.465Z,27.50
2019-03-22T06:47:11.240Z,27.00
2019-03-22T06:48:10.449Z,28.10
2019-03-22T06:49:10.439Z,26.80
2019-03-22T06:50:10.425Z,27.10
2019-03-22T06:51:10.617Z,27.10
2019-03-22T06:52:10.631Z,26.20
2019-03-22T06:53:10.620Z,26.20
2019-03-22T06:54:10.598Z,26.40
2019-03-22T06:55:10.386Z,25.50
2019-03-22T06:56:10.388Z,24.00
2019-03-22T06:57:10.379Z,24.00
2019-03-22T06:58:10.387Z,24.30
2019-03-22T06:59:10.593Z,23.50
2019-03-22T07:00:10.366Z,24.20
2019-03-22T07:01:10.562Z,24.00
2019-03-22T07:02:10.347Z,25.30
2019-03-22T07:03:10.336Z,23.90
2019-03-22T07:04:10.334Z,25.30
2019-03-22T07:05:10.336Z,24.70
2019-03-22T07:06:10.309Z,24.10
2019-03-22T07:07:10.313Z,25.30
2019-03-22T07:08:10.298Z,24.30
2019-03-22T07:09:10.302Z,24.40
2019-03-22T07:10:10.295Z,27.70
2019-03-22T07:11:10.287Z,28.50
2019-03-22T07:12:10.282Z,29.70
2019-03-22T07:13:10.267Z,31.20
2019-03-22T07:14:10.256Z,32.20
2019-03-22T07:15:10.249Z,31.00
2019-03-22T07:16:10.251Z,30.50
2019-03-22T07:17:10.238Z,30.30
2019-03-22T07:18:10.253Z,30.70
2019-03-22T07:19:10.234Z,29.40
2019-03-22T07:20:10.228Z,29.30
2019-03-22T07:21:10.210Z,29.50
2019-03-22T07:22:10.202Z,29.60
2019-03-22T07:23:10.219Z,31.00
2019-03-22T07:24:10.192Z,31.50
2019-03-22T07:25:10.194Z,31.20
2019-03-22T07:26:10.177Z,30.20
2019-03-22T07:27:10.175Z,31.10
2019-03-22T07:28:10.168Z,29.60
2019-03-22T07:29:10.174Z,29.60
2019-03-22T07:30:18.497Z,29.70
2019-03-22T07:31:10.157Z,29.80
2019-03-22T07:32:10.153Z,28.80
2019-03-22T07:33:10.149Z,29.30
2019-03-22T07:34:10.138Z,28.80
2019-03-22T07:35:10.123Z,27.90
2019-03-22T07:36:10.116Z,27.90
2019-03-22T07:37:10.112Z,27.20
2019-03-22T07:38:10.119Z,26.10
2019-03-22T07:39:10.094Z,26.70
2019-03-22T07:40:10.103Z,25.50
2019-03-22T07:41:10.116Z,26.00
2019-03-22T07:42:10.087Z,25.90
2019-03-22T07:43:10.073Z,25.30
2019-03-22T07:44:10.061Z,26.10
2019-03-22T07:45:10.276Z,24.90
2019-03-22T07:46:10.267Z,25.00
2019-03-22T07:47:10.258Z,25.40
2019-03-22T07:48:10.075Z,24.50
2019-03-22T07:49:10.051Z,24.70
2019-03-22T07:50:10.027Z,24.30
2019-03-22T07:51:10.243Z,24.00
2019-03-22T07:52:10.235Z,24.70
2019-03-22T07:53:10.008Z,22.80
2019-03-22T07:54:10.212Z,23.40
2019-03-22T07:55:10.204Z,24.30
2019-03-22T07:56:10.206Z,23.90
2019-03-22T07:57:09.989Z,23.30
2019-03-22T07:58:09.997Z,22.60
2019-03-22T07:59:10.090Z,23.00
2019-03-22T08:00:10.185Z,21.90
2019-03-22T08:01:09.980Z,20.50
2019-03-22T08:02:09.966Z,21.40
2019-03-22T08:03:10.165Z,21.50
2019-03-22T08:04:09.959Z,20.30
2019-03-22T08:05:10.152Z,22.10
2019-03-22T08:06:09.949Z,20.80
2019-03-22T08:07:10.148Z,21.80
2019-03-22T08:08:10.134Z,21.50
2019-03-22T08:09:09.943Z,20.90
2019-03-22T08:10:10.117Z,21.80
2019-03-22T08:11:09.912Z,20.40
2019-03-22T08:12:09.914Z,20.70
2019-03-22T08:13:10.123Z,20.60
2019-03-22T08:14:09.941Z,20.40
2019-03-22T08:15:09.891Z,21.10
2019-03-22T08:16:09.889Z,21.00
2019-03-22T08:17:09.900Z,20.00
2019-03-22T08:18:09.875Z,19.10
2019-03-22T08:19:10.078Z,19.90
2019-03-22T08:20:09.867Z,20.10
2019-03-22T08:21:09.866Z,19.30
2019-03-22T08:22:09.923Z,18.50
2019-03-22T08:23:10.057Z,19.90
2019-03-22T08:24:09.854Z,18.90
2019-03-22T08:25:10.058Z,19.20
2019-03-22T08:26:09.838Z,18.90
2019-03-22T08:27:10.101Z,18.60
2019-03-22T08:28:09.847Z,17.90
2019-03-22T08:29:09.861Z,17.90
2019-03-22T08:30:09.890Z,18.40
2019-03-22T08:31:09.845Z,17.20
2019-03-22T08:32:10.059Z,16.70
2019-03-22T08:33:09.836Z,16.60
2019-03-22T08:34:09.809Z,16.80
2019-03-22T08:35:09.805Z,16.00
2019-03-22T08:36:10.037Z,16.00
2019-03-22T08:37:09.796Z,17.00
2019-03-22T08:38:10.033Z,15.80
2019-03-22T08:39:09.779Z,15.70
2019-03-22T08:40:09.800Z,15.50
2019-03-22T08:41:09.798Z,15.40
2019-03-22T08:42:09.785Z,15.30
2019-03-22T08:43:09.766Z,15.60
2019-03-22T08:44:09.779Z,14.80
2019-03-22T08:45:11.430Z,14.90
2019-03-22T08:46:09.783Z,15.20
2019-03-22T08:47:09.790Z,15.50
2019-03-22T08:48:09.745Z,15.20
2019-03-22T08:49:10.000Z,14.30
2019-03-22T08:50:09.737Z,14.40
2019-03-22T08:51:09.789Z,14.40
2019-03-22T08:52:09.727Z,14.30
2019-03-22T08:53:09.718Z,14.40
2019-03-22T08:54:09.719Z,15.00
2019-03-22T08:55:09.723Z,15.20
2019-03-22T08:56:09.710Z,14.60
2019-03-22T08:57:09.743Z,15.90
2019-03-22T08:58:09.695Z,14.30
2019-03-22T08:59:09.694Z,14.60
2019-03-22T09:00:09.692Z,15.20
2019-03-22T09:01:09.686Z,14.30
2019-03-22T09:02:09.800Z,14.70
2019-03-22T09:03:09.691Z,14.80
2019-03-22T09:04:09.679Z,14.60
2019-03-22T09:05:09.667Z,15.10
2019-03-22T09:06:09.673Z,15.00
2019-03-22T09:07:09.859Z,14.80
2019-03-22T09:08:09.652Z,15.20
2019-03-22T09:09:09.645Z,14.50
2019-03-22T09:10:09.649Z,14.50
2019-03-22T09:11:09.676Z,16.10
2019-03-22T09:12:09.737Z,15.30
2019-03-22T09:13:09.754Z,15.50
2019-03-22T09:14:09.707Z,16.10
2019-03-22T09:15:09.674Z,15.40
2019-03-22T09:16:09.751Z,15.90
2019-03-22T09:17:09.651Z,15.90
2019-03-22T09:18:09.645Z,16.50
2019-03-22T09:19:09.655Z,16.00
2019-03-22T09:20:09.641Z,16.60
2019-03-22T09:21:09.645Z,16.90
2019-03-22T09:22:09.635Z,16.10
2019-03-22T09:23:09.613Z,16.40
2019-03-22T09:24:09.622Z,17.60
2019-03-22T09:25:09.607Z,16.60
2019-03-22T09:26:09.649Z,16.80
2019-03-22T09:27:09.651Z,16.70
2019-03-22T09:28:10.474Z,16.70
2019-03-22T09:29:09.587Z,16.30
2019-03-22T09:30:09.607Z,16.20
2019-03-22T09:31:10.595Z,16.60
2019-03-22T09:32:09.614Z,16.10
2019-03-22T09:33:09.582Z,16.40
2019-03-22T09:34:09.626Z,16.70
2019-03-22T09:35:09.594Z,15.90
2019-03-22T09:36:09.576Z,16.50
2019-03-22T09:37:09.588Z,16.30
2019-03-22T09:38:13.121Z,16.20
2019-03-22T09:39:09.539Z,16.70
2019-03-22T09:40:09.533Z,16.60
2019-03-22T09:41:09.609Z,15.50
2019-03-22T09:42:09.663Z,14.50
2019-03-22T09:43:09.756Z,15.80
2019-03-22T09:44:09.634Z,15.60
2019-03-22T09:45:09.541Z,16.10
2019-03-22T09:46:09.533Z,16.10
2019-03-22T09:47:09.511Z,14.90
2019-03-22T09:48:09.579Z,15.40
2019-03-22T09:49:09.541Z,14.90
2019-03-22T09:50:09.505Z,14.70
2019-03-22T09:51:09.504Z,14.70
2019-03-22T09:52:09.476Z,14.60
2019-03-22T09:53:09.557Z,14.30
2019-03-22T09:54:09.506Z,14.20
2019-03-22T09:55:13.958Z,14.30
2019-03-22T09:56:09.442Z,16.00
2019-03-22T09:57:09.447Z,14.30
2019-03-22T09:58:09.428Z,14.70
2019-03-22T09:59:09.688Z,14.90
2019-03-22T10:00:09.434Z,15.30
2019-03-22T10:01:09.477Z,15.40
2019-03-22T10:02:09.420Z,14.80
2019-03-22T10:03:09.405Z,16.20
2019-03-22T10:04:09.411Z,14.70
2019-03-22T10:05:09.405Z,15.20
2019-03-22T10:06:09.398Z,15.50
2019-03-22T10:07:09.405Z,14.80
2019-03-22T10:08:09.394Z,16.20
2019-03-22T10:09:09.381Z,15.30
2019-03-22T10:10:09.379Z,14.00
2019-03-22T10:11:09.381Z,14.70
2019-03-22T10:12:09.376Z,13.80
2019-03-22T10:13:09.435Z,13.10
2019-03-22T10:14:09.365Z,13.40
2019-03-22T10:15:09.421Z,12.80
2019-03-22T10:16:09.370Z,12.40
2019-03-22T10:17:09.375Z,11.60
2019-03-22T10:18:09.348Z,11.50
2019-03-22T10:19:09.355Z,12.40
2019-03-22T10:20:09.399Z,12.30
2019-03-22T10:21:21.520Z,12.70
2019-03-22T10:22:09.353Z,11.70
2019-03-22T10:23:09.330Z,12.60
2019-03-22T10:24:09.353Z,12.30
2019-03-22T10:25:09.380Z,12.00
2019-03-22T10:26:09.320Z,11.90
2019-03-22T10:27:09.333Z,12.40
2019-03-22T10:28:09.308Z,12.30
2019-03-22T10:29:09.325Z,13.00
2019-03-22T10:30:09.394Z,11.40
2019-03-22T10:31:09.331Z,11.50
2019-03-22T10:32:09.298Z,12.00
2019-03-22T10:33:21.762Z,11.40
2019-03-22T10:34:09.296Z,12.00
2019-03-22T10:35:09.321Z,13.10
2019-03-22T10:36:09.297Z,11.90
2019-03-22T10:37:09.279Z,13.70
2019-03-22T10:38:15.971Z,12.60
2019-03-22T10:39:09.277Z,12.30
2019-03-22T10:40:09.323Z,12.40
2019-03-22T10:41:09.268Z,12.20
2019-03-22T10:42:09.341Z,12.20
2019-03-22T10:43:09.277Z,12.60
2019-03-22T10:44:09.253Z,12.70
2019-03-22T10:45:09.275Z,12.40
2019-03-22T10:46:09.295Z,12.60
2019-03-22T10:47:09.260Z,12.00
2019-03-22T10:48:09.483Z,11.30
2019-03-22T10:49:09.229Z,11.60
2019-03-22T10:50:09.309Z,12.20
2019-03-22T10:51:09.238Z,12.00
2019-03-22T10:52:09.255Z,12.50
2019-03-22T10:53:09.358Z,11.60
2019-03-22T10:54:09.310Z,11.20
2019-03-22T10:55:28.538Z,11.70
2019-03-22T10:56:09.416Z,10.70
2019-03-22T10:57:09.218Z,10.50
2019-03-22T10:58:20.405Z,10.50
2019-03-22T10:59:09.213Z,10.10
2019-03-22T11:00:09.200Z,10.40
2019-03-22T11:01:09.207Z,10.10
2019-03-22T11:02:09.210Z,10.40
2019-03-22T11:03:09.416Z,10.80
2019-03-22T11:05:09.210Z,9.50
2019-03-22T11:06:09.201Z,9.70
2019-03-22T11:07:09.188Z,9.50
2019-03-22T11:08:09.173Z,9.70
2019-03-22T11:09:09.172Z,9.80
2019-03-22T11:10:11.122Z,9.90
2019-03-22T11:11:09.163Z,10.20
2019-03-22T11:12:12.436Z,9.80
2019-03-22T11:13:09.156Z,9.70
2019-03-22T11:14:09.156Z,9.30
2019-03-22T11:15:09.166Z,9.60
2019-03-22T11:16:09.153Z,9.40
2019-03-22T11:17:09.341Z,9.50
2019-03-22T11:18:09.166Z,9.00
2019-03-22T11:19:09.149Z,9.30
2019-03-22T11:20:09.136Z,9.40
2019-03-22T11:21:09.144Z,9.20
2019-03-22T11:22:09.124Z,9.60
2019-03-22T11:23:09.136Z,9.10
2019-03-22T11:24:09.120Z,9.20
2019-03-22T11:25:09.335Z,9.00
2019-03-22T11:26:09.121Z,9.80
2019-03-22T11:27:09.113Z,8.90
2019-03-22T11:28:09.110Z,8.90
2019-03-22T11:29:09.107Z,8.30
2019-03-22T11:30:09.102Z,8.70
2019-03-22T11:31:09.107Z,8.60
2019-03-22T11:32:12.878Z,8.30
2019-03-22T11:33:09.090Z,9.00
2019-03-22T11:34:09.104Z,9.10
2019-03-22T11:35:09.081Z,8.40
2019-03-22T11:36:09.081Z,8.80
2019-03-22T11:37:09.082Z,9.30
2019-03-22T11:38:09.086Z,9.10
2019-03-22T11:39:15.568Z,9.60
2019-03-22T11:40:09.272Z,9.10
2019-03-22T11:41:09.078Z,9.30
2019-03-22T11:42:09.263Z,9.20
2019-03-22T11:43:09.205Z,9.30
2019-03-22T11:44:09.071Z,9.40
2019-03-22T11:45:09.065Z,8.90
2019-03-22T11:46:09.049Z,8.80
2019-03-22T11:47:09.046Z,8.90
2019-03-22T11:48:09.042Z,8.30
2019-03-22T11:49:09.042Z,8.80
2019-03-22T11:50:09.050Z,8.50
2019-03-22T11:51:09.045Z,8.40
2019-03-22T11:52:09.047Z,9.20
2019-03-22T11:53:09.062Z,9.50
2019-03-22T11:54:09.056Z,9.10
2019-03-22T11:55:09.043Z,10.10
2019-03-22T11:56:09.514Z,9.30
2019-03-22T11:57:09.028Z,8.80
2019-03-22T11:58:09.034Z,9.30
2019-03-22T11:59:09.015Z,9.10
2019-03-22T12:00:09.020Z,9.40
2019-03-22T12:01:09.017Z,9.10
2019-03-22T12:02:09.013Z,9.20
2019-03-22T12:03:09.016Z,7.90
2019-03-22T12:04:09.010Z,8.90
2019-03-22T12:05:09.003Z,8.30
2019-03-22T12:06:09.013Z,8.40
2019-03-22T12:07:09.004Z,9.60
2019-03-22T12:08:09.006Z,9.10
2019-03-22T12:09:08.996Z,8.60
2019-03-22T12:10:09.002Z,8.70
2019-03-22T12:11:09.016Z,8.80
2019-03-22T12:12:08.991Z,8.30
2019-03-22T12:13:09.011Z,7.80
2019-03-22T12:14:08.985Z,8.20
2019-03-22T12:15:09.004Z,8.20
2019-03-22T12:16:08.986Z,8.50
2019-03-22T12:17:08.968Z,8.40
2019-03-22T12:18:08.961Z,8.60
2019-03-22T12:19:08.975Z,7.50
2019-03-22T12:20:08.954Z,8.50
2019-03-22T12:21:08.958Z,7.80
2019-03-22T12:22:09.176Z,8.30
2019-03-22T12:23:08.958Z,8.20
2019-03-22T12:24:08.958Z,8.00
2019-03-22T12:25:09.156Z,7.50
2019-03-22T12:26:08.955Z,7.80
2019-03-22T12:27:08.941Z,7.80
2019-03-22T12:28:08.956Z,8.80
2019-03-22T12:29:09.147Z,7.80
2019-03-22T12:30:08.948Z,7.60
2019-03-22T12:31:08.928Z,6.80
2019-03-22T12:32:08.982Z,7.10
2019-03-22T12:33:08.928Z,8.00
2019-03-22T12:34:08.934Z,7.80
2019-03-22T12:35:08.932Z,7.10
2019-03-22T12:36:08.931Z,6.70
2019-03-22T12:37:08.909Z,6.30
2019-03-22T12:38:08.906Z,6.70
2019-03-22T12:39:08.910Z,7.10
2019-03-22T12:40:08.911Z,7.10
2019-03-22T12:41:08.911Z,6.90
2019-03-22T12:42:08.907Z,7.20
2019-03-22T12:43:08.914Z,7.00
2019-03-22T12:44:08.907Z,6.10
2019-03-22T12:45:08.915Z,7.00
2019-03-22T12:46:08.894Z,6.90
2019-03-22T12:47:08.901Z,7.60
2019-03-22T12:48:08.886Z,7.00
2019-03-22T12:49:08.916Z,7.20
2019-03-22T12:50:08.885Z,6.50
2019-03-22T12:51:08.897Z,6.90
2019-03-22T12:52:09.095Z,6.50
2019-03-22T12:53:08.869Z,6.90
2019-03-22T12:54:08.871Z,6.90
2019-03-22T12:55:08.869Z,7.30
2019-03-22T12:56:09.073Z,6.80
2019-03-22T12:57:08.877Z,6.60